Terminal Aerodrome Forecast
Issued by NWS

Home | Current Version | Previous Version | Text Only | Print | Product List | Glossary Off
Versions: 1 2 3 4 5 6 7 8 9 10 11 12 13

000
FTUS43 KFGF 282000 AAA
TAFBJI
TAF AMD
KBJI 282038Z 2821/2918 34009KT P6SM SCT060
     FM290100 VRB04KT P6SM SKC
     FM291600 31008KT P6SM SCT050=

USA.gov is the U.S. government's official web portal to all federal, state and local government web resources and services.